DAH1193 LFBD-DAOO
Flight info
| Callsign | DAH1193 |
|---|---|
| Flight time | 1h 34m |
| Altitude | 35000 |
| Route | OBLOC DCT SECHE DCT AGN DCT ANETO N860 VLC P34 HAMRA DCT MOS |
| Aircraft | B738/M-SDE2E3FGHIRWXY/LB1 |
Departure
| Time | 2026-04-22 12:33 |
|---|---|
| Airport | Bordeaux–Mérignac Airport (LFBD) |
Arrival
| Time | 2026-04-22 14:07 |
|---|---|
| Airport | Oran Es-Sénia (Ahmed Ben Bella) International Airport (DAOO) |
| Time | Latitude | Longitude | Altitude | Speed | Heading |
|---|---|---|---|---|---|
| 2026-04-22 11:45 | 44.82957 | -0.70246 | 168 ft | 0 kts | 31° |
| 2026-04-22 12:21 | 44.82951 | -0.70251 | 168 ft | 4 kts | 30° |
| 2026-04-22 12:21 | 44.82928 | -0.70269 | 168 ft | 4 kts | 24° |
| 2026-04-22 12:21 | 44.82907 | -0.70281 | 168 ft | 3 kts | 17° |
| 2026-04-22 12:22 | 44.82882 | -0.70288 | 168 ft | 4 kts | 351° |
| 2026-04-22 12:22 | 44.82865 | -0.70274 | 168 ft | 3 kts | 286° |
| 2026-04-22 12:22 | 44.82859 | -0.70248 | 168 ft | 0 kts | 286° |
| 2026-04-22 12:26 | 44.82864 | -0.70269 | 169 ft | 5 kts | 286° |
| 2026-04-22 12:26 | 44.82877 | -0.70333 | 169 ft | 8 kts | 286° |
| 2026-04-22 12:26 | 44.82893 | -0.70411 | 169 ft | 8 kts | 284° |
| 2026-04-22 12:26 | 44.82872 | -0.70485 | 169 ft | 8 kts | 237° |
| 2026-04-22 12:27 | 44.82863 | -0.70565 | 169 ft | 9 kts | 281° |
| 2026-04-22 12:27 | 44.82885 | -0.70670 | 169 ft | 14 kts | 288° |
| 2026-04-22 12:27 | 44.82917 | -0.70825 | 169 ft | 19 kts | 285° |
| 2026-04-22 12:27 | 44.82969 | -0.70926 | 168 ft | 14 kts | 13° |
| 2026-04-22 12:28 | 44.83041 | -0.70834 | 168 ft | 14 kts | 45° |
| 2026-04-22 12:28 | 44.83108 | -0.70739 | 167 ft | 13 kts | 45° |
| 2026-04-22 12:28 | 44.83169 | -0.70652 | 166 ft | 12 kts | 45° |
| 2026-04-22 12:28 | 44.83228 | -0.70568 | 166 ft | 12 kts | 45° |
| 2026-04-22 12:29 | 44.83286 | -0.70486 | 165 ft | 12 kts | 45° |
| 2026-04-22 12:29 | 44.83342 | -0.70407 | 164 ft | 11 kts | 45° |
| 2026-04-22 12:29 | 44.83396 | -0.70329 | 163 ft | 11 kts | 45° |
| 2026-04-22 12:29 | 44.83449 | -0.70254 | 163 ft | 11 kts | 46° |
| 2026-04-22 12:30 | 44.83549 | -0.70110 | 161 ft | 10 kts | 45° |
| 2026-04-22 12:30 | 44.83597 | -0.70042 | 161 ft | 10 kts | 45° |
| 2026-04-22 12:30 | 44.83655 | -0.70008 | 160 ft | 9 kts | 349° |
| 2026-04-22 12:31 | 44.83715 | -0.70039 | 160 ft | 9 kts | 336° |
| 2026-04-22 12:31 | 44.83780 | -0.70085 | 159 ft | 11 kts | 322° |
| 2026-04-22 12:31 | 44.83806 | -0.70128 | 160 ft | 5 kts | 303° |
| 2026-04-22 12:31 | 44.83812 | -0.70172 | 160 ft | 5 kts | 260° |
| 2026-04-22 12:32 | 44.83794 | -0.70207 | 160 ft | 0 kts | 228° |
| 2026-04-22 12:32 | 44.83317 | -0.70883 | 168 ft | 123 kts | 225° |
| 2026-04-22 12:32 | 44.82554 | -0.71975 | 259 ft | 182 kts | 226° |
| 2026-04-22 12:33 | 44.81633 | -0.73313 | 1024 ft | 200 kts | 227° |
| 2026-04-22 12:33 | 44.80648 | -0.74798 | 1847 ft | 211 kts | 228° |
| 2026-04-22 12:33 | 44.79613 | -0.76380 | 2580 ft | 234 kts | 228° |
| 2026-04-22 12:33 | 44.78482 | -0.78218 | 3282 ft | 254 kts | 228° |
| 2026-04-22 12:34 | 44.77169 | -0.79820 | 4498 ft | 252 kts | 206° |
| 2026-04-22 12:34 | 44.75471 | -0.80232 | 5185 ft | 259 kts | 170° |
| 2026-04-22 12:34 | 44.73837 | -0.79162 | 5901 ft | 264 kts | 141° |
| 2026-04-22 12:34 | 44.72582 | -0.77263 | 6659 ft | 267 kts | 127° |
| 2026-04-22 12:35 | 44.71481 | -0.75136 | 7400 ft | 271 kts | 126° |
| 2026-04-22 12:35 | 44.70371 | -0.72974 | 8157 ft | 274 kts | 126° |
| 2026-04-22 12:35 | 44.69234 | -0.70808 | 8886 ft | 277 kts | 127° |
| 2026-04-22 12:35 | 44.68073 | -0.68635 | 9608 ft | 280 kts | 127° |
| 2026-04-22 12:36 | 44.66914 | -0.66420 | 10279 ft | 285 kts | 121° |
| 2026-04-22 12:36 | 44.66214 | -0.63762 | 10527 ft | 306 kts | 101° |
| 2026-04-22 12:36 | 44.66022 | -0.60685 | 10717 ft | 328 kts | 89° |
| 2026-04-22 12:36 | 44.66115 | -0.57380 | 10890 ft | 349 kts | 86° |
| 2026-04-22 12:37 | 44.66288 | -0.53895 | 11170 ft | 364 kts | 86° |
| 2026-04-22 12:37 | 44.66468 | -0.50310 | 11722 ft | 370 kts | 86° |
| 2026-04-22 12:37 | 44.66631 | -0.46695 | 12395 ft | 372 kts | 86° |
| 2026-04-22 12:37 | 44.66777 | -0.43055 | 13027 ft | 375 kts | 87° |
| 2026-04-22 12:38 | 44.66911 | -0.39376 | 13618 ft | 379 kts | 87° |
| 2026-04-22 12:38 | 44.67035 | -0.35789 | 14215 ft | 382 kts | 87° |
| 2026-04-22 12:38 | 44.67160 | -0.32049 | 14811 ft | 385 kts | 87° |
| 2026-04-22 12:38 | 44.67284 | -0.28280 | 15387 ft | 388 kts | 87° |
| 2026-04-22 12:39 | 44.67408 | -0.24474 | 15927 ft | 392 kts | 87° |
| 2026-04-22 12:39 | 44.67613 | -0.16765 | 17032 ft | 398 kts | 93° |
| 2026-04-22 12:39 | 44.66986 | -0.12994 | 17514 ft | 401 kts | 114° |
| 2026-04-22 12:40 | 44.65752 | -0.09474 | 18054 ft | 403 kts | 117° |
| 2026-04-22 12:40 | 44.64476 | -0.05957 | 18546 ft | 406 kts | 117° |
| 2026-04-22 12:40 | 44.63208 | -0.02459 | 19014 ft | 409 kts | 117° |
| 2026-04-22 12:40 | 44.61917 | 0.01122 | 19488 ft | 412 kts | 117° |
| 2026-04-22 12:41 | 44.60625 | 0.04726 | 19967 ft | 415 kts | 117° |
| 2026-04-22 12:41 | 44.59329 | 0.08362 | 20435 ft | 418 kts | 116° |
| 2026-04-22 12:41 | 44.58030 | 0.12015 | 20881 ft | 420 kts | 116° |
| 2026-04-22 12:41 | 44.56721 | 0.15699 | 21305 ft | 423 kts | 116° |
| 2026-04-22 12:42 | 44.55403 | 0.19402 | 21718 ft | 426 kts | 116° |
| 2026-04-22 12:42 | 44.54075 | 0.23128 | 22121 ft | 428 kts | 116° |
| 2026-04-22 12:42 | 44.52758 | 0.26818 | 22514 ft | 430 kts | 116° |
| 2026-04-22 12:42 | 44.51415 | 0.30576 | 22896 ft | 433 kts | 116° |
| 2026-04-22 12:43 | 44.50060 | 0.34360 | 23227 ft | 436 kts | 117° |
| 2026-04-22 12:43 | 44.48697 | 0.38163 | 23600 ft | 438 kts | 117° |
| 2026-04-22 12:43 | 44.47326 | 0.41985 | 23974 ft | 440 kts | 117° |
| 2026-04-22 12:43 | 44.45944 | 0.45818 | 24318 ft | 442 kts | 117° |
| 2026-04-22 12:44 | 44.44272 | 0.49432 | 24610 ft | 445 kts | 130° |
| 2026-04-22 12:44 | 44.42031 | 0.52417 | 24954 ft | 446 kts | 143° |
| 2026-04-22 12:44 | 44.39423 | 0.54651 | 25283 ft | 447 kts | 155° |
| 2026-04-22 12:44 | 44.36592 | 0.56471 | 25596 ft | 449 kts | 156° |
| 2026-04-22 12:45 | 44.33734 | 0.58271 | 25855 ft | 452 kts | 156° |
| 2026-04-22 12:45 | 44.30862 | 0.60086 | 26115 ft | 455 kts | 155° |
| 2026-04-22 12:45 | 44.27982 | 0.61925 | 26396 ft | 456 kts | 155° |
| 2026-04-22 12:45 | 44.25099 | 0.63786 | 26699 ft | 457 kts | 155° |
| 2026-04-22 12:46 | 44.22205 | 0.65664 | 26936 ft | 460 kts | 155° |
| 2026-04-22 12:46 | 44.19303 | 0.67554 | 27228 ft | 461 kts | 155° |
| 2026-04-22 12:46 | 44.16393 | 0.69449 | 27500 ft | 462 kts | 155° |
| 2026-04-22 12:46 | 44.13516 | 0.71321 | 27781 ft | 463 kts | 155° |
| 2026-04-22 12:47 | 44.10598 | 0.73217 | 28131 ft | 462 kts | 155° |
| 2026-04-22 12:47 | 44.07691 | 0.75101 | 28500 ft | 460 kts | 155° |
| 2026-04-22 12:47 | 44.04786 | 0.76983 | 28823 ft | 460 kts | 155° |
| 2026-04-22 12:47 | 44.01883 | 0.78861 | 29120 ft | 460 kts | 155° |
| 2026-04-22 12:48 | 43.98981 | 0.80737 | 29444 ft | 460 kts | 155° |
| 2026-04-22 12:48 | 43.96167 | 0.82553 | 29795 ft | 458 kts | 155° |
| 2026-04-22 12:48 | 43.93280 | 0.84413 | 30105 ft | 457 kts | 156° |
| 2026-04-22 12:48 | 43.90442 | 0.85831 | 30315 ft | 458 kts | 167° |
| 2026-04-22 12:49 | 43.87257 | 0.86441 | 30569 ft | 458 kts | 178° |
| 2026-04-22 12:49 | 43.84098 | 0.86216 | 30897 ft | 455 kts | 189° |
| 2026-04-22 12:49 | 43.81006 | 0.85393 | 31215 ft | 453 kts | 192° |
| 2026-04-22 12:49 | 43.77916 | 0.84515 | 31476 ft | 453 kts | 192° |
| 2026-04-22 12:50 | 43.74824 | 0.83633 | 31699 ft | 454 kts | 192° |
| 2026-04-22 12:50 | 43.71730 | 0.82763 | 31950 ft | 454 kts | 192° |
| 2026-04-22 12:50 | 43.68639 | 0.81910 | 32241 ft | 452 kts | 191° |
| 2026-04-22 12:50 | 43.65669 | 0.81104 | 32518 ft | 451 kts | 191° |
| 2026-04-22 12:51 | 43.62586 | 0.80276 | 32747 ft | 451 kts | 191° |
| 2026-04-22 12:51 | 43.59503 | 0.79454 | 32965 ft | 452 kts | 191° |
| 2026-04-22 12:51 | 43.56418 | 0.78634 | 33219 ft | 450 kts | 191° |
| 2026-04-22 12:51 | 43.53342 | 0.77819 | 33469 ft | 450 kts | 191° |
| 2026-04-22 12:52 | 43.50294 | 0.77010 | 33691 ft | 449 kts | 191° |
| 2026-04-22 12:52 | 43.47232 | 0.76199 | 33902 ft | 449 kts | 191° |
| 2026-04-22 12:52 | 43.44197 | 0.75395 | 34098 ft | 449 kts | 191° |
| 2026-04-22 12:52 | 43.41171 | 0.74594 | 34319 ft | 449 kts | 191° |
| 2026-04-22 12:53 | 43.38102 | 0.73784 | 34544 ft | 449 kts | 191° |
| 2026-04-22 12:53 | 43.35042 | 0.72975 | 34777 ft | 447 kts | 191° |
| 2026-04-22 12:53 | 43.31990 | 0.72168 | 34972 ft | 447 kts | 191° |
| 2026-04-22 12:54 | 43.25844 | 0.70548 | 34998 ft | 450 kts | 191° |
| 2026-04-22 12:54 | 43.19711 | 0.68935 | 35004 ft | 448 kts | 191° |
| 2026-04-22 12:55 | 43.13648 | 0.67345 | 35002 ft | 445 kts | 191° |
| 2026-04-22 12:55 | 43.07573 | 0.65754 | 35008 ft | 444 kts | 191° |
| 2026-04-22 12:56 | 43.01499 | 0.64166 | 35001 ft | 445 kts | 191° |
| 2026-04-22 12:56 | 42.95436 | 0.62584 | 35005 ft | 449 kts | 191° |
| 2026-04-22 12:57 | 42.89246 | 0.60970 | 35009 ft | 456 kts | 191° |
| 2026-04-22 12:57 | 42.83000 | 0.59349 | 34995 ft | 456 kts | 191° |
| 2026-04-22 12:58 | 42.76791 | 0.57740 | 34986 ft | 453 kts | 191° |
| 2026-04-22 12:58 | 42.70640 | 0.56147 | 34986 ft | 454 kts | 191° |
| 2026-04-22 12:59 | 42.64391 | 0.54540 | 35013 ft | 461 kts | 191° |
| 2026-04-22 12:59 | 42.58098 | 0.52931 | 34995 ft | 459 kts | 191° |
| 2026-04-22 13:00 | 42.51824 | 0.51328 | 35004 ft | 458 kts | 191° |
| 2026-04-22 13:00 | 42.45581 | 0.49736 | 34984 ft | 456 kts | 191° |
| 2026-04-22 13:01 | 42.39398 | 0.48161 | 34993 ft | 455 kts | 191° |
| 2026-04-22 13:01 | 42.33194 | 0.46584 | 35000 ft | 452 kts | 191° |
| 2026-04-22 13:02 | 42.27014 | 0.45004 | 35005 ft | 451 kts | 191° |
| 2026-04-22 13:02 | 42.20897 | 0.43442 | 35005 ft | 450 kts | 191° |
| 2026-04-22 13:03 | 42.14750 | 0.41876 | 34989 ft | 449 kts | 191° |
| 2026-04-22 13:03 | 42.08617 | 0.40318 | 35003 ft | 448 kts | 191° |
| 2026-04-22 13:04 | 42.02486 | 0.38761 | 35005 ft | 448 kts | 191° |
| 2026-04-22 13:04 | 41.96362 | 0.37212 | 35008 ft | 448 kts | 191° |
| 2026-04-22 13:05 | 41.90267 | 0.35679 | 35004 ft | 449 kts | 191° |
| 2026-04-22 13:05 | 41.84130 | 0.34138 | 35013 ft | 449 kts | 191° |
| 2026-04-22 13:06 | 41.77991 | 0.32599 | 35003 ft | 449 kts | 191° |
| 2026-04-22 13:06 | 41.71897 | 0.31078 | 34995 ft | 448 kts | 191° |
| 2026-04-22 13:07 | 41.65774 | 0.29560 | 35001 ft | 447 kts | 191° |
| 2026-04-22 13:07 | 41.59662 | 0.28045 | 35005 ft | 447 kts | 191° |
| 2026-04-22 13:08 | 41.53549 | 0.26539 | 34994 ft | 447 kts | 191° |
| 2026-04-22 13:08 | 41.47479 | 0.25043 | 35003 ft | 447 kts | 191° |
| 2026-04-22 13:09 | 41.41368 | 0.23539 | 35002 ft | 447 kts | 191° |
| 2026-04-22 13:09 | 41.35257 | 0.22037 | 34994 ft | 447 kts | 191° |
| 2026-04-22 13:10 | 41.29146 | 0.20502 | 35009 ft | 447 kts | 191° |
| 2026-04-22 13:10 | 41.23077 | 0.18974 | 34998 ft | 447 kts | 191° |
| 2026-04-22 13:11 | 41.16959 | 0.17474 | 35002 ft | 447 kts | 191° |
| 2026-04-22 13:11 | 41.10867 | 0.15802 | 35002 ft | 448 kts | 196° |
| 2026-04-22 13:12 | 41.04910 | 0.13375 | 34991 ft | 448 kts | 198° |
| 2026-04-22 13:12 | 40.99002 | 0.10915 | 35002 ft | 448 kts | 197° |
| 2026-04-22 13:13 | 40.93029 | 0.08516 | 34997 ft | 449 kts | 197° |
| 2026-04-22 13:13 | 40.87044 | 0.06138 | 34998 ft | 449 kts | 197° |
| 2026-04-22 13:14 | 40.81059 | 0.03738 | 35002 ft | 450 kts | 197° |
| 2026-04-22 13:14 | 40.75113 | 0.01341 | 34995 ft | 450 kts | 197° |
| 2026-04-22 13:15 | 40.69121 | -0.01067 | 35000 ft | 450 kts | 197° |
| 2026-04-22 13:15 | 40.63120 | -0.03472 | 34997 ft | 451 kts | 197° |
| 2026-04-22 13:16 | 40.57104 | -0.05878 | 35004 ft | 453 kts | 197° |
| 2026-04-22 13:16 | 40.51136 | -0.08249 | 35000 ft | 453 kts | 197° |
| 2026-04-22 13:17 | 40.45097 | -0.10629 | 35002 ft | 454 kts | 197° |
| 2026-04-22 13:17 | 40.39048 | -0.13010 | 35004 ft | 454 kts | 197° |
| 2026-04-22 13:18 | 40.33137 | -0.15337 | 34992 ft | 454 kts | 197° |
| 2026-04-22 13:18 | 40.27134 | -0.17697 | 35008 ft | 453 kts | 197° |
| 2026-04-22 13:19 | 40.21105 | -0.20070 | 34994 ft | 452 kts | 197° |
| 2026-04-22 13:19 | 40.15094 | -0.22449 | 34997 ft | 451 kts | 197° |
| 2026-04-22 13:20 | 40.09097 | -0.24818 | 34996 ft | 449 kts | 197° |
| 2026-04-22 13:20 | 40.03161 | -0.27156 | 35012 ft | 448 kts | 197° |
| 2026-04-22 13:21 | 39.97192 | -0.29488 | 34996 ft | 447 kts | 197° |
| 2026-04-22 13:21 | 39.91227 | -0.31782 | 35001 ft | 446 kts | 197° |
| 2026-04-22 13:22 | 39.85277 | -0.34075 | 34996 ft | 446 kts | 197° |
| 2026-04-22 13:22 | 39.79376 | -0.36377 | 34999 ft | 446 kts | 197° |
| 2026-04-22 13:23 | 39.73425 | -0.38694 | 34998 ft | 446 kts | 197° |
| 2026-04-22 13:23 | 39.67466 | -0.41007 | 34997 ft | 447 kts | 197° |
| 2026-04-22 13:24 | 39.61505 | -0.43316 | 35012 ft | 447 kts | 197° |
| 2026-04-22 13:24 | 39.55541 | -0.45621 | 34995 ft | 447 kts | 197° |
| 2026-04-22 13:25 | 39.49565 | -0.47649 | 34988 ft | 447 kts | 187° |
| 2026-04-22 13:25 | 39.43369 | -0.47512 | 35004 ft | 447 kts | 172° |
| 2026-04-22 13:26 | 39.37223 | -0.46297 | 34998 ft | 447 kts | 172° |
| 2026-04-22 13:26 | 39.31070 | -0.45139 | 35000 ft | 447 kts | 172° |
| 2026-04-22 13:27 | 39.24952 | -0.44044 | 34999 ft | 447 kts | 172° |
| 2026-04-22 13:27 | 39.18796 | -0.42940 | 35004 ft | 447 kts | 172° |
| 2026-04-22 13:28 | 39.12642 | -0.41831 | 35000 ft | 446 kts | 172° |
| 2026-04-22 13:28 | 39.06485 | -0.40725 | 34999 ft | 447 kts | 172° |
| 2026-04-22 13:29 | 39.00366 | -0.39627 | 34996 ft | 447 kts | 172° |
| 2026-04-22 13:29 | 38.94202 | -0.38524 | 35002 ft | 447 kts | 172° |
| 2026-04-22 13:30 | 38.88027 | -0.37420 | 34998 ft | 448 kts | 172° |
| 2026-04-22 13:30 | 38.81850 | -0.36319 | 34999 ft | 449 kts | 172° |
| 2026-04-22 13:31 | 38.75662 | -0.35217 | 34996 ft | 449 kts | 172° |
| 2026-04-22 13:31 | 38.69505 | -0.34124 | 35005 ft | 450 kts | 172° |
| 2026-04-22 13:32 | 38.63285 | -0.33021 | 34993 ft | 452 kts | 172° |
| 2026-04-22 13:32 | 38.57059 | -0.31919 | 35012 ft | 452 kts | 172° |
| 2026-04-22 13:33 | 38.50833 | -0.30815 | 34996 ft | 451 kts | 172° |
| 2026-04-22 13:33 | 38.44669 | -0.29729 | 34999 ft | 450 kts | 172° |
| 2026-04-22 13:34 | 38.38483 | -0.28638 | 34993 ft | 448 kts | 172° |
| 2026-04-22 13:34 | 38.32317 | -0.27548 | 34996 ft | 446 kts | 172° |
| 2026-04-22 13:35 | 38.26172 | -0.26453 | 34998 ft | 446 kts | 172° |
| 2026-04-22 13:35 | 38.20075 | -0.25367 | 35001 ft | 445 kts | 172° |
| 2026-04-22 13:36 | 38.13946 | -0.24278 | 35004 ft | 445 kts | 172° |
| 2026-04-22 13:36 | 38.07823 | -0.23193 | 35000 ft | 444 kts | 172° |
| 2026-04-22 13:37 | 38.01702 | -0.22111 | 35001 ft | 444 kts | 172° |
| 2026-04-22 13:37 | 37.95574 | -0.21036 | 35001 ft | 445 kts | 172° |
| 2026-04-22 13:38 | 37.89475 | -0.19975 | 35002 ft | 445 kts | 172° |
| 2026-04-22 13:38 | 37.80258 | -0.18375 | 34998 ft | 446 kts | 172° |
| 2026-04-22 13:39 | 37.74099 | -0.17309 | 35005 ft | 447 kts | 172° |
| 2026-04-22 13:39 | 37.67978 | -0.16249 | 34998 ft | 447 kts | 172° |
| 2026-04-22 13:40 | 37.61810 | -0.15183 | 34998 ft | 447 kts | 172° |
| 2026-04-22 13:40 | 37.55644 | -0.14120 | 35000 ft | 447 kts | 172° |
| 2026-04-22 13:41 | 37.49479 | -0.13057 | 34998 ft | 447 kts | 172° |
| 2026-04-22 13:41 | 37.43361 | -0.12006 | 35007 ft | 447 kts | 172° |
| 2026-04-22 13:42 | 37.37204 | -0.10949 | 35004 ft | 447 kts | 172° |
| 2026-04-22 13:42 | 37.31046 | -0.09892 | 35003 ft | 446 kts | 172° |
| 2026-04-22 13:43 | 37.24891 | -0.08839 | 34998 ft | 446 kts | 172° |
| 2026-04-22 13:43 | 37.18735 | -0.07788 | 35000 ft | 446 kts | 172° |
| 2026-04-22 13:44 | 37.12619 | -0.06745 | 34997 ft | 447 kts | 172° |
| 2026-04-22 13:44 | 37.06453 | -0.05694 | 34754 ft | 451 kts | 172° |
| 2026-04-22 13:45 | 37.03327 | -0.05161 | 34183 ft | 452 kts | 172° |
| 2026-04-22 13:45 | 37.00212 | -0.04631 | 33474 ft | 452 kts | 172° |
| 2026-04-22 13:45 | 36.97091 | -0.04100 | 32762 ft | 453 kts | 172° |
| 2026-04-22 13:45 | 36.93963 | -0.03568 | 32017 ft | 455 kts | 172° |
| 2026-04-22 13:46 | 36.90860 | -0.03040 | 31257 ft | 456 kts | 172° |
| 2026-04-22 13:46 | 36.87709 | -0.02504 | 30459 ft | 458 kts | 172° |
| 2026-04-22 13:46 | 36.84547 | -0.01971 | 29639 ft | 459 kts | 172° |
| 2026-04-22 13:46 | 36.81370 | -0.01442 | 28754 ft | 461 kts | 173° |
| 2026-04-22 13:47 | 36.78190 | -0.00913 | 27837 ft | 463 kts | 173° |
| 2026-04-22 13:47 | 36.74987 | -0.00383 | 26881 ft | 465 kts | 173° |
| 2026-04-22 13:47 | 36.71773 | 0.00150 | 25881 ft | 467 kts | 173° |
| 2026-04-22 13:47 | 36.68564 | 0.00681 | 25182 ft | 462 kts | 173° |
| 2026-04-22 13:48 | 36.65393 | 0.01207 | 24464 ft | 458 kts | 173° |
| 2026-04-22 13:48 | 36.62286 | 0.01721 | 23770 ft | 454 kts | 173° |
| 2026-04-22 13:48 | 36.59178 | 0.02236 | 23075 ft | 449 kts | 173° |
| 2026-04-22 13:48 | 36.56090 | 0.02747 | 22379 ft | 445 kts | 173° |
| 2026-04-22 13:49 | 36.53036 | 0.03252 | 21679 ft | 441 kts | 173° |
| 2026-04-22 13:49 | 36.50005 | 0.03752 | 20996 ft | 437 kts | 173° |
| 2026-04-22 13:49 | 36.47004 | 0.04247 | 20321 ft | 433 kts | 173° |
| 2026-04-22 13:49 | 36.44031 | 0.04737 | 19641 ft | 429 kts | 173° |
| 2026-04-22 13:50 | 36.42079 | 0.05057 | 19225 ft | 427 kts | 173° |
| 2026-04-22 13:50 | 36.38213 | 0.05694 | 18386 ft | 420 kts | 173° |
| 2026-04-22 13:50 | 36.35339 | 0.06168 | 17781 ft | 415 kts | 173° |
| 2026-04-22 13:50 | 36.32491 | 0.06637 | 17123 ft | 410 kts | 173° |
| 2026-04-22 13:51 | 36.29669 | 0.07101 | 16462 ft | 407 kts | 173° |
| 2026-04-22 13:51 | 36.26872 | 0.07561 | 15811 ft | 404 kts | 173° |
| 2026-04-22 13:51 | 36.24094 | 0.08017 | 15170 ft | 401 kts | 173° |
| 2026-04-22 13:51 | 36.21343 | 0.08468 | 14529 ft | 397 kts | 173° |
| 2026-04-22 13:52 | 36.19533 | 0.08764 | 14084 ft | 396 kts | 173° |
| 2026-04-22 13:52 | 36.15937 | 0.09352 | 13256 ft | 392 kts | 173° |
| 2026-04-22 13:52 | 36.13244 | 0.09793 | 12626 ft | 388 kts | 173° |
| 2026-04-22 13:52 | 36.10577 | 0.10228 | 11921 ft | 387 kts | 173° |
| 2026-04-22 13:53 | 36.07925 | 0.10661 | 11464 ft | 379 kts | 173° |
| 2026-04-22 13:53 | 36.05335 | 0.11084 | 11080 ft | 371 kts | 173° |
| 2026-04-22 13:53 | 36.02824 | 0.11495 | 10871 ft | 358 kts | 173° |
| 2026-04-22 13:53 | 36.01211 | 0.11758 | 10769 ft | 349 kts | 173° |
| 2026-04-22 13:54 | 35.98095 | 0.12267 | 10548 ft | 334 kts | 173° |
| 2026-04-22 13:54 | 35.95834 | 0.12635 | 10411 ft | 323 kts | 173° |
| 2026-04-22 13:54 | 35.93646 | 0.12988 | 10284 ft | 312 kts | 174° |
| 2026-04-22 13:54 | 35.91534 | 0.12819 | 10135 ft | 301 kts | 199° |
| 2026-04-22 13:55 | 35.89752 | 0.11587 | 9962 ft | 292 kts | 221° |
| 2026-04-22 13:55 | 35.88459 | 0.09736 | 9923 ft | 279 kts | 240° |
| 2026-04-22 13:55 | 35.87589 | 0.07644 | 9602 ft | 276 kts | 245° |
| 2026-04-22 13:55 | 35.86774 | 0.05451 | 9164 ft | 282 kts | 246° |
| 2026-04-22 13:56 | 35.85980 | 0.03266 | 8801 ft | 283 kts | 246° |
| 2026-04-22 13:56 | 35.85177 | 0.01061 | 8504 ft | 281 kts | 246° |
| 2026-04-22 13:56 | 35.84373 | -0.01130 | 8216 ft | 279 kts | 246° |
| 2026-04-22 13:56 | 35.83832 | -0.02598 | 8031 ft | 278 kts | 245° |
| 2026-04-22 13:57 | 35.82773 | -0.05454 | 7645 ft | 276 kts | 245° |
| 2026-04-22 13:57 | 35.81976 | -0.07595 | 7367 ft | 274 kts | 245° |
| 2026-04-22 13:57 | 35.81450 | -0.09003 | 7188 ft | 272 kts | 245° |
| 2026-04-22 13:57 | 35.80662 | -0.11109 | 6923 ft | 269 kts | 245° |
| 2026-04-22 13:58 | 35.79884 | -0.13185 | 6626 ft | 264 kts | 245° |
| 2026-04-22 13:58 | 35.78871 | -0.15889 | 6258 ft | 262 kts | 245° |
| 2026-04-22 13:58 | 35.78108 | -0.17922 | 5986 ft | 260 kts | 245° |
| 2026-04-22 13:58 | 35.77351 | -0.19937 | 5706 ft | 259 kts | 245° |
| 2026-04-22 13:59 | 35.76595 | -0.21943 | 5460 ft | 256 kts | 245° |
| 2026-04-22 13:59 | 35.76106 | -0.23241 | 5374 ft | 248 kts | 245° |
| 2026-04-22 13:59 | 35.75398 | -0.25122 | 5248 ft | 235 kts | 245° |
| 2026-04-22 13:59 | 35.74727 | -0.26905 | 5150 ft | 224 kts | 245° |
| 2026-04-22 14:00 | 35.74082 | -0.28610 | 5057 ft | 214 kts | 245° |
| 2026-04-22 14:00 | 35.73453 | -0.30209 | 4972 ft | 202 kts | 242° |
| 2026-04-22 14:00 | 35.72648 | -0.32187 | 4741 ft | 190 kts | 245° |
| 2026-04-22 14:00 | 35.72282 | -0.33171 | 4625 ft | 184 kts | 246° |
| 2026-04-22 14:01 | 35.71786 | -0.34571 | 4421 ft | 177 kts | 247° |
| 2026-04-22 14:01 | 35.71312 | -0.35936 | 4229 ft | 172 kts | 247° |
| 2026-04-22 14:01 | 35.70851 | -0.37279 | 4081 ft | 167 kts | 247° |
| 2026-04-22 14:01 | 35.70394 | -0.38605 | 4025 ft | 180 kts | 247° |
| 2026-04-22 14:02 | 35.69900 | -0.40047 | 3808 ft | 183 kts | 248° |
| 2026-04-22 14:02 | 35.69411 | -0.41480 | 3556 ft | 179 kts | 247° |
| 2026-04-22 14:02 | 35.68937 | -0.42868 | 3326 ft | 172 kts | 248° |
| 2026-04-22 14:02 | 35.68482 | -0.44205 | 3099 ft | 166 kts | 248° |
| 2026-04-22 14:03 | 35.68042 | -0.45496 | 2880 ft | 163 kts | 247° |
| 2026-04-22 14:03 | 35.67611 | -0.46761 | 2687 ft | 161 kts | 247° |
| 2026-04-22 14:03 | 35.67185 | -0.48001 | 2514 ft | 153 kts | 248° |
| 2026-04-22 14:03 | 35.66768 | -0.49223 | 2265 ft | 153 kts | 248° |
| 2026-04-22 14:04 | 35.66365 | -0.50409 | 2058 ft | 148 kts | 248° |
| 2026-04-22 14:04 | 35.65973 | -0.51560 | 1866 ft | 146 kts | 247° |
| 2026-04-22 14:04 | 35.65580 | -0.52714 | 1683 ft | 147 kts | 248° |
| 2026-04-22 14:04 | 35.65185 | -0.53873 | 1483 ft | 147 kts | 248° |
| 2026-04-22 14:05 | 35.64791 | -0.55030 | 1285 ft | 146 kts | 248° |
| 2026-04-22 14:05 | 35.64406 | -0.56162 | 1097 ft | 145 kts | 248° |
| 2026-04-22 14:05 | 35.63628 | -0.58450 | 714 ft | 145 kts | 248° |
| 2026-04-22 14:06 | 35.63251 | -0.59601 | 501 ft | 145 kts | 248° |
| 2026-04-22 14:06 | 35.62860 | -0.60729 | 324 ft | 140 kts | 246° |
| 2026-04-22 14:06 | 35.62507 | -0.61731 | 309 ft | 112 kts | 247° |
| 2026-04-22 14:06 | 35.62265 | -0.62441 | 309 ft | 69 kts | 247° |
| 2026-04-22 14:07 | 35.62143 | -0.62806 | 308 ft | 32 kts | 248° |
| 2026-04-22 14:07 | 35.62062 | -0.62976 | 310 ft | 20 kts | 207° |
| 2026-04-22 14:07 | 35.61968 | -0.62970 | 309 ft | 4 kts | 159° |
| 2026-04-22 14:07 | 35.61944 | -0.62959 | 309 ft | 4 kts | 159° |
| 2026-04-22 14:08 | 35.61921 | -0.62948 | 308 ft | 4 kts | 157° |
| 2026-04-22 14:08 | 35.61894 | -0.62934 | 308 ft | 5 kts | 156° |
| 2026-04-22 14:08 | 35.61840 | -0.62904 | 308 ft | 12 kts | 156° |
| 2026-04-22 14:08 | 35.61737 | -0.62852 | 308 ft | 19 kts | 159° |
| 2026-04-22 14:09 | 35.61623 | -0.62739 | 309 ft | 24 kts | 113° |
| 2026-04-22 14:09 | 35.61650 | -0.62538 | 309 ft | 26 kts | 69° |
| 2026-04-22 14:09 | 35.61718 | -0.62344 | 309 ft | 24 kts | 68° |
| 2026-04-22 14:09 | 35.61765 | -0.62203 | 309 ft | 17 kts | 68° |
| 2026-04-22 14:10 | 35.61810 | -0.62070 | 309 ft | 16 kts | 67° |
| 2026-04-22 14:10 | 35.61854 | -0.61943 | 309 ft | 16 kts | 66° |
| 2026-04-22 14:10 | 35.61895 | -0.61821 | 309 ft | 15 kts | 68° |
| 2026-04-22 14:10 | 35.61935 | -0.61704 | 308 ft | 15 kts | 67° |
| 2026-04-22 14:11 | 35.61974 | -0.61592 | 309 ft | 14 kts | 66° |
| 2026-04-22 14:11 | 35.62011 | -0.61486 | 309 ft | 13 kts | 66° |
| 2026-04-22 14:11 | 35.62015 | -0.61390 | 307 ft | 7 kts | 125° |
| 2026-04-22 14:11 | 35.61984 | -0.61366 | 309 ft | 5 kts | 156° |
| 2026-04-22 14:12 | 35.61952 | -0.61350 | 309 ft | 5 kts | 157° |
| 2026-04-22 14:12 | 35.61920 | -0.61333 | 308 ft | 5 kts | 159° |
| 2026-04-22 14:12 | 35.61887 | -0.61323 | 308 ft | 5 kts | 174° |
| 2026-04-22 14:12 | 35.61854 | -0.61334 | 309 ft | 5 kts | 203° |
| 2026-04-22 14:13 | 35.61803 | -0.61361 | 309 ft | 11 kts | 199° |
| 2026-04-22 14:13 | 35.61725 | -0.61383 | 309 ft | 11 kts | 190° |
| 2026-04-22 14:13 | 35.61671 | -0.61385 | 309 ft | 7 kts | 153° |
| 2026-04-22 14:13 | 35.61661 | -0.61329 | 309 ft | 7 kts | 91° |
| 2026-04-22 14:14 | 35.61661 | -0.61271 | 309 ft | 7 kts | 91° |
| 2026-04-22 14:14 | 35.61661 | -0.61265 | 309 ft | 0 kts | 89° |
| 2026-04-22 14:16 | 35.63798 | -0.57950 | 795 ft | 145 kts | 248° |
| 2026-04-22 14:16 | 35.63417 | -0.59086 | 602 ft | 145 kts | 249° |
| 2026-04-22 14:16 | 35.63055 | -0.60186 | 395 ft | 144 kts | 247° |
| 2026-04-22 14:16 | 35.62675 | -0.61244 | 312 ft | 129 kts | 247° |
| 2026-04-22 14:17 | 35.63006 | -0.60327 | 377 ft | 143 kts | 246° |
| 2026-04-22 14:17 | 35.62593 | -0.61481 | 311 ft | 123 kts | 247° |
| 2026-04-22 14:17 | 35.62799 | -0.60897 | 319 ft | 137 kts | 246° |
| 2026-04-22 14:17 | 35.63432 | -0.59038 | 615 ft | 146 kts | 248° |
| 2026-04-22 14:18 | 35.63135 | -0.59951 | 428 ft | 145 kts | 248° |
| 2026-04-22 14:18 | 35.62731 | -0.61087 | 318 ft | 132 kts | 246° |
| 2026-04-22 14:18 | 35.62480 | -0.61810 | 307 ft | 108 kts | 247° |
| 2026-04-22 14:18 | 35.62419 | -0.61988 | 307 ft | 98 kts | 247° |
| 2026-04-22 14:19 | 35.62216 | -0.62586 | 307 ft | 56 kts | 248° |
| 2026-04-22 14:19 | 35.62125 | -0.62859 | 309 ft | 27 kts | 248° |
| 2026-04-22 14:19 | 35.62057 | -0.62979 | 308 ft | 20 kts | 204° |
| 2026-04-22 14:19 | 35.61970 | -0.62971 | 309 ft | 4 kts | 159° |
| 2026-04-22 14:20 | 35.61928 | -0.62952 | 308 ft | 4 kts | 159° |
| 2026-04-22 14:20 | 35.61907 | -0.62940 | 308 ft | 4 kts | 156° |
| 2026-04-22 14:20 | 35.61897 | -0.62935 | 308 ft | 5 kts | 156° |
| 2026-04-22 14:21 | 35.61883 | -0.62928 | 309 ft | 7 kts | 156° |
| 2026-04-22 14:21 | 35.61822 | -0.62895 | 308 ft | 14 kts | 156° |
| 2026-04-22 14:22 | 35.61791 | -0.62878 | 308 ft | 16 kts | 156° |